createdAt,value
2018-04-20T00:00:59.531Z,4.47
2018-04-20T00:03:26.193Z,4.20
2018-04-20T00:05:52.888Z,4.53
2018-04-20T00:08:19.555Z,4.40
2018-04-20T00:10:46.218Z,4.90
2018-04-20T00:13:12.900Z,5.23
2018-04-20T00:15:39.580Z,4.63
2018-04-20T00:18:06.242Z,4.13
2018-04-20T00:20:32.917Z,4.80
2018-04-20T00:22:59.616Z,5.43
2018-04-20T00:25:26.278Z,4.90
2018-04-20T00:27:52.940Z,3.90
2018-04-20T00:30:19.631Z,5.07
2018-04-20T00:32:46.308Z,5.10
2018-04-20T00:35:13.033Z,4.40
2018-04-20T00:37:39.780Z,5.20
2018-04-20T00:40:06.495Z,4.87
2018-04-20T00:42:33.359Z,5.30
2018-04-20T00:45:00.107Z,4.93
2018-04-20T00:47:26.816Z,4.27
2018-04-20T00:49:53.500Z,4.87
2018-04-20T00:52:20.195Z,4.87
2018-04-20T00:54:46.871Z,5.27
2018-04-20T00:57:13.563Z,5.17
2018-04-20T00:59:40.233Z,5.17
2018-04-20T01:02:07.003Z,6.60
2018-04-20T01:04:33.794Z,4.90
2018-04-20T01:07:00.531Z,5.00
2018-04-20T01:09:27.273Z,5.73
2018-04-20T01:11:53.959Z,5.57
2018-04-20T01:14:20.650Z,5.10
2018-04-20T01:16:47.391Z,5.20
2018-04-20T01:19:14.156Z,5.40
2018-04-20T01:21:40.864Z,5.23
2018-04-20T01:24:07.649Z,5.23
2018-04-20T01:26:34.322Z,5.60
2018-04-20T01:29:01.015Z,5.23
2018-04-20T01:31:27.712Z,5.50
2018-04-20T01:33:54.415Z,5.20
2018-04-20T01:36:21.143Z,5.50
2018-04-20T01:38:47.847Z,5.10
2018-04-20T01:41:14.519Z,5.20
2018-04-20T01:43:41.247Z,6.07
2018-04-20T01:46:07.936Z,4.80
2018-04-20T01:48:34.631Z,4.90
2018-04-20T01:51:01.407Z,5.20
2018-04-20T01:53:28.096Z,5.03
2018-04-20T01:55:54.763Z,5.60
2018-04-20T01:58:21.431Z,4.90
2018-04-20T02:00:48.148Z,4.93
2018-04-20T02:03:14.901Z,5.60
2018-04-20T02:05:41.691Z,5.40
2018-04-20T02:08:08.689Z,5.57
2018-04-20T02:10:35.372Z,5.40
2018-04-20T02:13:02.088Z,5.47
2018-04-20T02:15:28.799Z,5.67
2018-04-20T02:17:55.554Z,5.57
2018-04-20T02:20:22.228Z,5.23
2018-04-20T02:22:49.040Z,5.63
2018-04-20T02:25:15.735Z,4.97
2018-04-20T02:27:42.452Z,5.70
2018-04-20T02:30:09.203Z,6.17
2018-04-20T02:32:35.899Z,7.20
2018-04-20T02:35:02.609Z,6.90
2018-04-20T02:37:29.268Z,6.10
2018-04-20T02:39:55.964Z,5.20
2018-04-20T02:42:22.649Z,6.33
2018-04-20T02:44:49.339Z,6.40
2018-04-20T02:47:16.035Z,6.07
2018-04-20T02:49:42.785Z,4.60
2018-04-20T02:52:09.483Z,6.07
2018-04-20T02:54:36.159Z,4.73
2018-04-20T02:57:02.863Z,5.70
2018-04-20T02:59:29.563Z,6.20
2018-04-20T03:01:56.253Z,5.30
2018-04-20T03:04:22.919Z,6.13
2018-04-20T03:06:49.624Z,5.67
2018-04-20T03:09:16.377Z,6.10
2018-04-20T03:11:43.089Z,6.77
2018-04-20T03:14:09.775Z,6.50
2018-04-20T03:16:36.469Z,5.77
2018-04-20T03:19:03.135Z,5.13
2018-04-20T03:21:29.847Z,5.43
2018-04-20T03:23:56.531Z,6.60
2018-04-20T03:26:23.231Z,6.20
2018-04-20T03:28:49.952Z,5.60
2018-04-20T03:31:16.627Z,6.07
2018-04-20T03:33:43.347Z,6.50
2018-04-20T03:36:10.033Z,5.60
2018-04-20T03:38:36.793Z,6.10
2018-04-20T03:41:03.512Z,5.90
2018-04-20T03:43:30.199Z,6.00
2018-04-20T03:45:56.899Z,5.47
2018-04-20T03:48:23.819Z,5.47
2018-04-20T03:50:50.511Z,5.53
2018-04-20T03:53:17.191Z,5.20
2018-04-20T03:55:43.891Z,6.20
2018-04-20T03:58:10.576Z,6.73
2018-04-20T04:00:37.272Z,5.83
2018-04-20T04:03:03.963Z,5.07
2018-04-20T04:05:30.706Z,5.93
2018-04-20T04:07:57.391Z,5.93
2018-04-20T04:10:24.080Z,5.53
2018-04-20T04:12:50.764Z,6.50
2018-04-20T04:15:17.450Z,5.73
2018-04-20T04:17:49.873Z,5.23
2018-04-20T04:20:22.450Z,5.83
2018-04-20T04:22:55.059Z,5.90
2018-04-20T04:25:27.546Z,5.67
2018-04-20T04:27:59.987Z,5.60
2018-04-20T04:30:26.807Z,5.47
2018-04-20T04:32:53.481Z,5.93
2018-04-20T04:35:20.163Z,5.60
2018-04-20T04:37:46.855Z,4.97
2018-04-20T04:40:13.850Z,4.70
2018-04-20T04:42:40.509Z,4.40
2018-04-20T04:45:07.255Z,5.30
2018-04-20T04:47:33.951Z,5.90
2018-04-20T04:50:00.637Z,5.50
2018-04-20T04:52:27.310Z,5.50
2018-04-20T04:54:54.027Z,5.20
2018-04-20T04:57:20.701Z,5.63
2018-04-20T04:59:47.573Z,5.50
2018-04-20T05:02:14.269Z,5.60
2018-04-20T05:04:40.967Z,5.97
2018-04-20T05:07:07.637Z,5.40
2018-04-20T05:09:34.379Z,5.90
2018-04-20T05:12:01.067Z,5.70
2018-04-20T05:14:27.753Z,5.60
2018-04-20T05:16:54.539Z,5.67
2018-04-20T05:19:21.230Z,5.53
2018-04-20T05:21:48.046Z,5.83
2018-04-20T05:24:14.751Z,5.63
2018-04-20T05:26:41.474Z,6.23
2018-04-20T05:29:08.167Z,5.73
2018-04-20T05:31:35.073Z,5.10
2018-04-20T05:34:01.759Z,6.40
2018-04-20T05:36:28.432Z,6.63
2018-04-20T05:38:55.132Z,5.90
2018-04-20T05:41:21.842Z,5.27
2018-04-20T05:43:48.543Z,5.47
2018-04-20T05:46:15.230Z,5.30
2018-04-20T05:48:41.914Z,5.70
2018-04-20T05:51:08.765Z,5.90
2018-04-20T05:53:35.500Z,6.40
2018-04-20T05:56:02.247Z,6.23
2018-04-20T05:58:28.924Z,6.70
2018-04-20T06:00:55.615Z,6.30
2018-04-20T06:03:22.292Z,6.87
2018-04-20T06:05:49.171Z,7.17
2018-04-20T06:08:15.857Z,7.30
2018-04-20T06:10:42.571Z,6.70
2018-04-20T06:13:09.279Z,7.13
2018-04-20T06:15:36.033Z,7.67
2018-04-20T06:18:02.739Z,7.20
2018-04-20T06:20:29.432Z,6.70
2018-04-20T06:22:56.146Z,7.43
2018-04-20T06:25:22.984Z,7.50
2018-04-20T06:27:49.665Z,7.53
2018-04-20T06:30:16.364Z,6.67
2018-04-20T06:32:43.111Z,7.70
2018-04-20T06:35:09.804Z,6.23
2018-04-20T06:37:36.491Z,6.60
2018-04-20T06:40:03.199Z,6.37
2018-04-20T06:42:29.868Z,5.60
2018-04-20T06:44:56.641Z,6.17
2018-04-20T06:47:23.556Z,6.90
2018-04-20T06:49:50.251Z,5.93
2018-04-20T06:52:16.931Z,6.93
2018-04-20T06:54:43.612Z,5.33
2018-04-20T06:57:10.343Z,6.67
2018-04-20T06:59:37.172Z,6.10
2018-04-20T07:02:03.843Z,6.47
2018-04-20T07:04:30.541Z,6.30
2018-04-20T07:06:57.301Z,6.07
2018-04-20T07:09:23.971Z,5.43
2018-04-20T07:11:50.698Z,5.33
2018-04-20T07:14:17.409Z,4.70
2018-04-20T07:16:44.103Z,4.50
2018-04-20T07:19:10.885Z,5.57
2018-04-20T07:21:37.581Z,4.90
2018-04-20T07:24:04.308Z,4.80
2018-04-20T07:26:31.008Z,5.33
2018-04-20T07:28:57.722Z,6.50
2018-04-20T07:31:24.419Z,6.00
2018-04-20T07:33:51.235Z,5.90
2018-04-20T07:36:17.935Z,6.30
2018-04-20T07:38:44.625Z,6.40
2018-04-20T07:41:11.344Z,5.80
2018-04-20T07:43:38.035Z,5.73
2018-04-20T07:46:04.719Z,5.87
2018-04-20T07:48:31.431Z,5.90
2018-04-20T07:50:58.104Z,5.77
2018-04-20T07:53:25.003Z,6.33
2018-04-20T07:55:51.896Z,7.40
2018-04-20T07:58:18.719Z,7.47
2018-04-20T08:00:45.423Z,6.20
2018-04-20T08:03:12.135Z,6.70
2018-04-20T08:05:38.795Z,7.20
2018-04-20T08:08:05.660Z,7.20
2018-04-20T08:10:32.352Z,6.90
2018-04-20T08:12:59.241Z,8.43
2018-04-20T08:15:25.919Z,8.10
2018-04-20T08:17:52.607Z,7.97
2018-04-20T08:20:19.308Z,7.83
2018-04-20T08:22:46.037Z,7.27
2018-04-20T08:25:12.720Z,9.07
2018-04-20T08:27:39.447Z,7.23
2018-04-20T08:30:06.165Z,6.70
2018-04-20T08:32:32.851Z,7.97
2018-04-20T08:34:59.531Z,7.53
2018-04-20T08:37:26.223Z,6.93
2018-04-20T08:39:52.899Z,5.73
2018-04-20T08:42:19.627Z,7.07
2018-04-20T08:44:46.450Z,6.80
2018-04-20T08:47:13.127Z,5.60
2018-04-20T08:49:39.931Z,6.23
2018-04-20T08:52:06.602Z,5.33
2018-04-20T08:54:33.304Z,6.10
2018-04-20T08:56:59.993Z,6.63
2018-04-20T08:59:26.721Z,6.40
2018-04-20T09:01:53.404Z,7.43
2018-04-20T09:04:20.091Z,6.77
2018-04-20T09:06:46.801Z,7.30
2018-04-20T09:09:13.552Z,7.23
2018-04-20T09:11:40.359Z,8.20
2018-04-20T09:14:07.079Z,15.27
2018-04-20T09:16:33.764Z,9.73
2018-04-20T09:19:00.471Z,9.30
2018-04-20T09:21:27.208Z,9.97
2018-04-20T09:23:53.892Z,7.80
2018-04-20T09:26:20.582Z,10.73
2018-04-20T09:28:47.412Z,7.83
2018-04-20T09:31:14.104Z,9.63
2018-04-20T09:33:40.807Z,13.10
2018-04-20T09:36:07.556Z,11.93
2018-04-20T09:38:34.262Z,10.43
2018-04-20T09:41:01.079Z,9.90
2018-04-20T09:43:27.765Z,15.50
2018-04-20T09:45:54.467Z,9.80
2018-04-20T09:48:21.184Z,6.73
2018-04-20T09:50:47.872Z,8.80
2018-04-20T09:53:14.559Z,13.90
2018-04-20T09:55:41.275Z,9.00
2018-04-20T09:58:07.973Z,8.60
2018-04-20T10:00:40.614Z,8.93
2018-04-20T10:03:07.279Z,8.53
2018-04-20T10:05:34.035Z,7.90
2018-04-20T10:08:00.775Z,8.50
2018-04-20T10:10:27.488Z,15.57
2018-04-20T10:12:54.222Z,9.40
2018-04-20T10:15:20.885Z,8.50
2018-04-20T10:17:47.640Z,9.87
2018-04-20T10:20:14.526Z,10.00
2018-04-20T10:22:41.200Z,8.50
2018-04-20T10:25:07.917Z,10.10
2018-04-20T10:27:34.619Z,11.10
2018-04-20T10:30:01.308Z,9.53
2018-04-20T10:32:28.007Z,9.23
2018-04-20T10:34:54.830Z,9.43
2018-04-20T10:37:21.649Z,9.47
2018-04-20T10:39:48.358Z,9.60
2018-04-20T10:42:15.043Z,9.50
2018-04-20T10:44:41.748Z,9.47
2018-04-20T10:47:08.456Z,10.13
2018-04-20T10:49:35.175Z,9.37
2018-04-20T10:52:01.863Z,10.10
2018-04-20T10:54:28.568Z,10.00
2018-04-20T10:56:55.248Z,8.90
2018-04-20T10:59:22.028Z,8.20
2018-04-20T11:01:48.790Z,8.23
2018-04-20T11:04:15.468Z,6.60
2018-04-20T11:06:42.180Z,7.37
2018-04-20T11:09:08.860Z,6.67
2018-04-20T11:11:35.572Z,8.40
2018-04-20T11:14:02.303Z,8.13
2018-04-20T11:16:28.994Z,7.50
2018-04-20T11:18:55.687Z,6.53
2018-04-20T11:21:22.387Z,6.90
2018-04-20T11:23:49.223Z,7.60
2018-04-20T11:26:15.916Z,6.40
2018-04-20T11:28:42.607Z,7.03
2018-04-20T11:31:09.300Z,5.90
2018-04-20T11:33:35.983Z,5.73
2018-04-20T11:36:02.707Z,5.30
2018-04-20T11:38:29.394Z,4.30
2018-04-20T11:40:56.083Z,5.03
2018-04-20T11:43:22.913Z,4.57
2018-04-20T11:45:49.576Z,4.67
2018-04-20T11:48:16.351Z,3.67
2018-04-20T11:50:43.068Z,5.23
2018-04-20T11:53:09.788Z,3.57
2018-04-20T11:55:36.475Z,4.30
2018-04-20T11:58:03.151Z,5.13
2018-04-20T12:00:29.827Z,3.70
2018-04-20T12:02:56.536Z,3.20
2018-04-20T12:05:23.222Z,4.57
2018-04-20T12:07:49.915Z,4.57
2018-04-20T12:10:16.608Z,4.73
2018-04-20T12:12:43.311Z,4.17
2018-04-20T12:15:10.015Z,6.30
2018-04-20T12:17:36.709Z,5.50
2018-04-20T12:20:03.488Z,4.93
2018-04-20T12:22:30.196Z,6.00
2018-04-20T12:24:56.884Z,4.43
2018-04-20T12:27:23.591Z,5.00
2018-04-20T12:29:50.263Z,4.40
2018-04-20T12:32:16.964Z,6.13
2018-04-20T12:34:43.673Z,5.47
2018-04-20T12:37:10.447Z,6.60
2018-04-20T12:39:37.364Z,5.40
2018-04-20T12:42:04.076Z,5.43
2018-04-20T12:44:30.834Z,5.73
2018-04-20T12:46:57.495Z,7.60
2018-04-20T12:49:24.203Z,6.50
2018-04-20T12:51:50.880Z,5.57
2018-04-20T12:54:17.588Z,5.50
2018-04-20T12:56:44.279Z,5.40
2018-04-20T12:59:11.032Z,4.50
2018-04-20T13:01:37.867Z,5.00
2018-04-20T13:04:04.556Z,5.63
2018-04-20T13:06:31.263Z,4.90
2018-04-20T13:08:57.978Z,4.77
2018-04-20T13:11:24.676Z,4.97
2018-04-20T13:13:51.467Z,6.20
2018-04-20T13:16:18.252Z,4.70
2018-04-20T13:18:44.957Z,4.80
2018-04-20T13:21:11.633Z,4.43
2018-04-20T13:23:38.323Z,5.60
2018-04-20T13:26:05.003Z,4.40
2018-04-20T13:28:32.695Z,4.67
2018-04-20T13:30:59.410Z,5.60
2018-04-20T13:33:26.215Z,5.63
2018-04-20T13:35:52.895Z,5.47
2018-04-20T13:38:19.591Z,6.30
2018-04-20T13:40:46.297Z,5.80
2018-04-20T13:43:13.048Z,4.50
2018-04-20T13:45:39.736Z,5.37
2018-04-20T13:48:06.643Z,5.70
2018-04-20T13:50:33.320Z,5.50
2018-04-20T13:53:00.123Z,6.03
2018-04-20T13:55:26.809Z,5.40
2018-04-20T13:57:53.501Z,5.10
2018-04-20T14:00:20.206Z,5.60
2018-04-20T14:02:46.922Z,5.30
2018-04-20T14:05:13.631Z,4.50
2018-04-20T14:07:40.304Z,5.07
2018-04-20T14:10:06.988Z,5.83
2018-04-20T14:12:33.684Z,5.00
2018-04-20T14:15:00.407Z,5.10
2018-04-20T14:17:27.089Z,5.37
2018-04-20T14:19:53.799Z,5.20
2018-04-20T14:22:20.503Z,5.20
2018-04-20T14:24:47.214Z,4.50
2018-04-20T14:27:13.892Z,4.40
2018-04-20T14:29:40.627Z,4.47
2018-04-20T14:32:07.333Z,4.67
2018-04-20T14:34:34.285Z,4.33
2018-04-20T14:37:00.960Z,5.20
2018-04-20T14:39:27.685Z,4.70
2018-04-20T14:41:54.382Z,5.73
2018-04-20T14:44:21.100Z,4.77
2018-04-20T14:46:47.812Z,5.07
2018-04-20T14:49:14.508Z,4.33
2018-04-20T14:51:41.255Z,5.10
2018-04-20T14:54:07.972Z,5.10
2018-04-20T14:56:34.665Z,4.80
2018-04-20T14:59:01.363Z,4.97
2018-04-20T15:01:28.054Z,4.63
2018-04-20T15:03:54.883Z,4.97
2018-04-20T15:06:21.636Z,5.17
2018-04-20T15:08:48.324Z,5.03
2018-04-20T15:11:15.031Z,4.40
2018-04-20T15:13:42.047Z,4.97
2018-04-20T15:16:08.756Z,4.53
2018-04-20T15:18:35.460Z,4.73
2018-04-20T15:21:02.158Z,4.43
2018-04-20T15:23:28.859Z,5.30
2018-04-20T15:25:55.679Z,5.30
2018-04-20T15:28:22.394Z,4.90
2018-04-20T15:30:49.072Z,4.73
2018-04-20T15:33:15.802Z,5.33
2018-04-20T15:35:42.491Z,4.50
2018-04-20T15:38:09.197Z,4.27
2018-04-20T15:40:35.912Z,4.57
2018-04-20T15:43:02.609Z,4.30
2018-04-20T15:45:29.308Z,4.43
2018-04-20T15:47:55.997Z,5.10
2018-04-20T15:50:22.782Z,4.67
2018-04-20T15:52:49.472Z,4.90
2018-04-20T15:55:16.160Z,4.60
2018-04-20T15:57:42.868Z,5.13
2018-04-20T16:00:09.560Z,5.00
2018-04-20T16:02:36.287Z,4.63
2018-04-20T16:05:02.947Z,5.50
2018-04-20T16:07:29.660Z,4.30
2018-04-20T16:09:56.340Z,4.70
2018-04-20T16:12:23.170Z,4.77
2018-04-20T16:14:49.838Z,5.13
2018-04-20T16:17:16.550Z,5.00
2018-04-20T16:19:43.236Z,4.60
2018-04-20T16:22:09.975Z,4.10
2018-04-20T16:24:36.667Z,4.20
2018-04-20T16:27:03.357Z,4.63
2018-04-20T16:29:30.076Z,5.00
2018-04-20T16:31:56.783Z,4.70
2018-04-20T16:34:23.492Z,4.83
2018-04-20T16:36:50.168Z,4.23
2018-04-20T16:39:16.949Z,4.40
2018-04-20T16:41:43.584Z,4.47
2018-04-20T16:44:10.300Z,4.20
2018-04-20T16:46:37.015Z,5.33
2018-04-20T16:49:03.748Z,4.20
2018-04-20T16:51:30.438Z,5.57
2018-04-20T16:53:57.328Z,4.23
2018-04-20T16:56:24.012Z,4.37
2018-04-20T16:58:50.854Z,4.90
2018-04-20T17:01:17.612Z,4.87
2018-04-20T17:03:44.256Z,5.30
2018-04-20T17:06:10.961Z,5.33
2018-04-20T17:08:37.649Z,4.70
2018-04-20T17:11:04.412Z,4.03
2018-04-20T17:13:31.068Z,5.23
2018-04-20T17:15:57.780Z,4.70
2018-04-20T17:18:24.468Z,4.73
2018-04-20T17:20:51.152Z,4.10
2018-04-20T17:23:17.928Z,4.80
2018-04-20T17:25:44.645Z,4.50
2018-04-20T17:28:11.323Z,3.60
2018-04-20T17:30:38.029Z,5.07
2018-04-20T17:33:04.741Z,4.00
2018-04-20T17:35:31.513Z,4.27
2018-04-20T17:37:58.332Z,4.03
2018-04-20T17:40:25.220Z,4.17
2018-04-20T17:42:51.912Z,4.37
2018-04-20T17:45:18.612Z,4.50
2018-04-20T17:47:45.297Z,4.60
2018-04-20T17:50:12.015Z,5.50
2018-04-20T17:52:38.711Z,5.50
2018-04-20T17:55:05.407Z,6.83
2018-04-20T17:57:32.114Z,6.10
2018-04-20T17:59:58.801Z,5.70
2018-04-20T18:02:25.517Z,6.60
2018-04-20T18:04:52.410Z,6.50
2018-04-20T18:07:19.128Z,7.40
2018-04-20T18:09:45.846Z,9.00
2018-04-20T18:12:12.540Z,9.93
2018-04-20T18:14:39.266Z,9.40
2018-04-20T18:17:05.968Z,9.43
2018-04-20T18:19:32.708Z,10.13
2018-04-20T18:21:59.404Z,9.43
2018-04-20T18:24:26.189Z,10.90
2018-04-20T18:26:52.896Z,9.70
2018-04-20T18:29:19.621Z,11.27
2018-04-20T18:31:46.312Z,10.53
2018-04-20T18:34:13.057Z,11.23
2018-04-20T18:36:39.772Z,11.50
2018-04-20T18:39:06.624Z,11.00
2018-04-20T18:41:33.352Z,12.10
2018-04-20T18:44:00.039Z,11.93
2018-04-20T18:46:26.758Z,11.67
2018-04-20T18:48:53.473Z,11.70
2018-04-20T18:51:20.183Z,11.57
2018-04-20T18:53:46.903Z,12.17
2018-04-20T18:56:13.624Z,11.90
2018-04-20T18:58:40.326Z,11.57
2018-04-20T19:01:07.089Z,13.10
2018-04-20T19:03:33.780Z,12.80
2018-04-20T19:06:00.536Z,14.80
2018-04-20T19:08:27.279Z,13.97
2018-04-20T19:10:53.990Z,14.10
2018-04-20T19:13:20.696Z,14.40
2018-04-20T19:15:47.394Z,14.67
2018-04-20T19:18:14.168Z,13.87
2018-04-20T19:20:40.893Z,14.03
2018-04-20T19:23:07.612Z,14.27
2018-04-20T19:25:34.508Z,12.77
2018-04-20T19:28:01.233Z,13.03
2018-04-20T19:30:27.982Z,11.70
2018-04-20T19:32:54.773Z,10.77
2018-04-20T19:35:21.520Z,11.80
2018-04-20T19:37:48.368Z,12.17
2018-04-20T19:40:15.192Z,10.90
2018-04-20T19:42:41.944Z,10.90
2018-04-20T19:45:08.661Z,11.97
2018-04-20T19:47:35.407Z,10.50
2018-04-20T19:50:02.124Z,11.67
2018-04-20T19:52:28.812Z,10.33
2018-04-20T19:54:55.528Z,10.83
2018-04-20T19:57:22.244Z,11.03
2018-04-20T19:59:48.980Z,11.10
2018-04-20T20:02:16.172Z,11.60
2018-04-20T20:04:42.874Z,11.20
2018-04-20T20:07:09.835Z,11.53
2018-04-20T20:09:36.537Z,11.97
2018-04-20T20:12:03.272Z,10.70
2018-04-20T20:14:29.980Z,10.47
2018-04-20T20:16:56.684Z,11.40
2018-04-20T20:19:23.413Z,9.87
2018-04-20T20:21:50.134Z,11.47
2018-04-20T20:24:16.833Z,11.90
2018-04-20T20:26:43.527Z,12.50
2018-04-20T20:29:10.456Z,12.00
2018-04-20T20:31:37.164Z,11.00
2018-04-20T20:34:03.886Z,12.03
2018-04-20T20:36:30.704Z,10.10
2018-04-20T20:38:57.379Z,11.00
2018-04-20T20:41:24.235Z,10.40
2018-04-20T20:43:51.028Z,8.77
2018-04-20T20:46:17.760Z,10.07
2018-04-20T20:48:44.531Z,10.70
2018-04-20T20:51:11.230Z,11.20
2018-04-20T20:53:38.014Z,10.60
2018-04-20T20:56:04.712Z,11.23
2018-04-20T20:58:31.411Z,11.50
2018-04-20T21:00:58.105Z,10.97
2018-04-20T21:03:24.848Z,12.30
2018-04-20T21:05:51.528Z,12.47
2018-04-20T21:08:18.231Z,12.20
2018-04-20T21:10:44.940Z,11.77
2018-04-20T21:13:11.665Z,10.60
2018-04-20T21:15:38.362Z,11.60
2018-04-20T21:18:05.160Z,13.60
2018-04-20T21:20:31.897Z,11.30
2018-04-20T21:22:58.604Z,11.87
2018-04-20T21:25:25.350Z,11.50
2018-04-20T21:27:52.044Z,10.80
2018-04-20T21:30:18.753Z,11.70
2018-04-20T21:32:45.445Z,11.60
2018-04-20T21:35:12.169Z,11.70
2018-04-20T21:37:38.969Z,12.40
2018-04-20T21:40:05.705Z,12.60
2018-04-20T21:42:32.419Z,12.33
2018-04-20T21:44:59.136Z,12.90
2018-04-20T21:47:25.845Z,14.37
2018-04-20T21:49:52.533Z,15.17
2018-04-20T21:52:19.241Z,14.60
2018-04-20T21:54:45.955Z,13.70
2018-04-20T21:57:12.644Z,13.80
2018-04-20T21:59:39.374Z,12.30
2018-04-20T22:02:06.114Z,14.47
2018-04-20T22:04:32.833Z,12.10
2018-04-20T22:06:59.644Z,12.87
2018-04-20T22:09:27.319Z,13.53
2018-04-20T22:11:54.012Z,13.83
2018-04-20T22:14:20.728Z,14.10
2018-04-20T22:16:47.430Z,12.97
2018-04-20T22:19:14.132Z,14.80
2018-04-20T22:21:40.868Z,13.20
2018-04-20T22:24:07.572Z,14.20
2018-04-20T22:26:34.333Z,17.27
2018-04-20T22:29:01.097Z,14.23
2018-04-20T22:31:27.816Z,16.10
2018-04-20T22:33:54.509Z,14.70
2018-04-20T22:36:21.216Z,12.73
2018-04-20T22:38:47.904Z,15.37
2018-04-20T22:41:14.679Z,15.03
2018-04-20T22:43:41.392Z,15.33
2018-04-20T22:46:08.088Z,14.43
2018-04-20T22:48:34.800Z,13.87
2018-04-20T22:51:01.486Z,13.70
2018-04-20T22:53:28.205Z,16.00
2018-04-20T22:55:54.904Z,16.13
2018-04-20T22:58:21.591Z,15.67
2018-04-20T23:00:48.352Z,17.00
2018-04-20T23:03:15.073Z,17.27
2018-04-20T23:05:41.775Z,17.70
2018-04-20T23:08:08.459Z,18.13
2018-04-20T23:10:35.357Z,18.40
2018-04-20T23:13:02.035Z,18.10
2018-04-20T23:15:28.746Z,16.67
2018-04-20T23:17:55.455Z,19.40
2018-04-20T23:20:22.144Z,19.07
2018-04-20T23:22:48.849Z,20.57
2018-04-20T23:25:15.539Z,17.87
2018-04-20T23:27:42.355Z,19.80
2018-04-20T23:30:09.281Z,19.60
2018-04-20T23:32:35.989Z,17.83
2018-04-20T23:35:02.700Z,18.60
2018-04-20T23:37:29.397Z,18.20
2018-04-20T23:39:56.147Z,19.13
2018-04-20T23:42:22.985Z,18.73
2018-04-20T23:44:49.695Z,19.43
2018-04-20T23:47:16.385Z,18.27
2018-04-20T23:49:43.122Z,20.13
2018-04-20T23:52:09.838Z,20.07
2018-04-20T23:54:36.695Z,20.60
2018-04-20T23:57:03.464Z,20.50
2018-04-20T23:59:30.179Z,18.77
